createdAt,value
2023-03-13T00:01:22.601Z,5.50
2023-03-13T00:04:25.882Z,5.50
2023-03-13T00:07:30.457Z,5.40
2023-03-13T00:10:33.711Z,5.30
2023-03-13T00:13:37.015Z,5.40
2023-03-13T00:16:40.679Z,5.30
2023-03-13T00:19:43.904Z,5.30
2023-03-13T00:22:48.474Z,5.30
2023-03-13T00:25:58.518Z,5.30
2023-03-13T00:29:01.764Z,5.20
2023-03-13T00:32:05.761Z,5.20
2023-03-13T00:35:09.634Z,5.10
2023-03-13T00:38:14.201Z,5.20
2023-03-13T00:41:18.815Z,5.20
2023-03-13T00:44:22.024Z,5.20
2023-03-13T00:47:25.504Z,5.10
2023-03-13T00:50:28.655Z,5.20
2023-03-13T00:53:33.342Z,5.20
2023-03-13T00:56:37.145Z,5.10
2023-03-13T00:59:40.388Z,5.10
2023-03-13T01:02:44.269Z,5.00
2023-03-13T01:05:55.923Z,5.00
2023-03-13T01:09:01.128Z,5.00
2023-03-13T01:12:04.573Z,5.00
2023-03-13T01:15:09.926Z,5.00
2023-03-13T01:18:15.472Z,5.00
2023-03-13T01:21:19.993Z,5.00
2023-03-13T01:24:24.723Z,5.00
2023-03-13T01:27:27.904Z,4.90
2023-03-13T01:30:31.089Z,5.00
2023-03-13T01:33:34.455Z,5.00
2023-03-13T01:36:38.868Z,5.00
2023-03-13T01:39:43.886Z,5.00
2023-03-13T01:42:57.277Z,5.00
2023-03-13T01:46:04.235Z,4.90
2023-03-13T01:49:10.846Z,4.90
2023-03-13T01:52:17.112Z,4.90
2023-03-13T01:55:22.004Z,4.90
2023-03-13T01:58:25.938Z,4.80
2023-03-13T02:01:30.234Z,4.80
2023-03-13T02:04:44.966Z,4.80
2023-03-13T02:07:51.997Z,4.70
2023-03-13T02:11:04.835Z,4.70
2023-03-13T02:14:08.486Z,4.70
2023-03-13T02:17:12.401Z,4.60
2023-03-13T02:20:18.688Z,4.60
2023-03-13T02:23:29.034Z,4.60
2023-03-13T02:26:33.657Z,4.50
2023-03-13T02:29:36.923Z,4.50
2023-03-13T02:32:41.314Z,4.50
2023-03-13T02:35:45.765Z,4.50
2023-03-13T02:38:54.919Z,4.40
2023-03-13T02:42:00.675Z,4.40
2023-03-13T02:45:03.862Z,4.40
2023-03-13T02:48:07.281Z,4.40
2023-03-13T02:51:17.868Z,4.40
2023-03-13T02:54:23.990Z,4.30
2023-03-13T02:57:29.353Z,4.30
2023-03-13T03:00:32.538Z,4.30
2023-03-13T03:03:37.095Z,4.20
2023-03-13T03:06:40.286Z,4.20
2023-03-13T03:09:43.464Z,4.20
2023-03-13T03:12:48.061Z,4.10
2023-03-13T03:15:51.281Z,4.10
2023-03-13T03:18:54.501Z,4.10
2023-03-13T03:21:57.664Z,4.10
2023-03-13T03:25:00.835Z,4.00
2023-03-13T03:28:05.570Z,4.00
2023-03-13T03:31:10.128Z,4.00
2023-03-13T03:34:13.304Z,4.00
2023-03-13T03:37:16.541Z,4.00
2023-03-13T03:40:21.444Z,3.90
2023-03-13T03:43:26.465Z,3.90
2023-03-13T03:46:29.654Z,4.00
2023-03-13T03:49:32.853Z,3.90
2023-03-13T03:52:36.043Z,3.90
2023-03-13T03:55:39.157Z,3.90
2023-03-13T03:58:43.691Z,3.90
2023-03-13T04:01:46.877Z,3.90
2023-03-13T04:04:50.078Z,3.80
2023-03-13T04:07:53.257Z,3.80
2023-03-13T04:10:56.480Z,3.80
2023-03-13T04:14:00.992Z,3.80
2023-03-13T04:17:04.206Z,3.80
2023-03-13T04:20:08.489Z,3.80
2023-03-13T04:23:11.854Z,3.80
2023-03-13T04:26:15.003Z,3.80
2023-03-13T04:29:19.543Z,3.70
2023-03-13T04:32:22.725Z,3.70
2023-03-13T04:35:25.962Z,3.70
2023-03-13T04:38:29.151Z,3.70
2023-03-13T04:41:32.458Z,3.80
2023-03-13T04:44:36.968Z,3.80
2023-03-13T04:47:40.315Z,3.80
2023-03-13T04:50:43.484Z,3.80
2023-03-13T04:53:46.634Z,3.80
2023-03-13T04:56:50.174Z,3.80
2023-03-13T04:59:54.713Z,3.70
2023-03-13T05:02:57.839Z,3.70
2023-03-13T05:06:00.997Z,3.70
2023-03-13T05:09:04.803Z,3.80
2023-03-13T05:12:08.589Z,3.80
2023-03-13T05:15:13.511Z,3.70
2023-03-13T05:18:16.735Z,3.80
2023-03-13T05:21:19.964Z,3.80
2023-03-13T05:24:23.217Z,3.80
2023-03-13T05:27:26.440Z,3.80
2023-03-13T05:30:31.102Z,3.70
2023-03-13T05:33:34.273Z,3.80
2023-03-13T05:36:37.477Z,3.80
2023-03-13T05:39:40.706Z,3.80
2023-03-13T05:42:43.879Z,3.90
2023-03-13T05:45:48.441Z,3.90
2023-03-13T05:48:52.830Z,4.00
2023-03-13T05:51:55.986Z,4.10
2023-03-13T05:54:59.172Z,4.10
2023-03-13T05:58:02.431Z,4.20
2023-03-13T06:01:11.951Z,4.30
2023-03-13T06:04:15.227Z,4.30
2023-03-13T06:07:18.575Z,4.40
2023-03-13T06:10:21.736Z,4.50
2023-03-13T06:13:24.975Z,4.50
2023-03-13T06:16:29.646Z,4.60
2023-03-13T06:19:33.176Z,4.70
2023-03-13T06:22:36.359Z,4.80
2023-03-13T06:25:39.815Z,4.90
2023-03-13T06:28:43.062Z,5.00
2023-03-13T06:31:47.735Z,5.10
2023-03-13T06:34:51.037Z,5.30
2023-03-13T06:37:54.889Z,5.40
2023-03-13T06:40:58.265Z,5.60
2023-03-13T06:44:01.499Z,5.80
2023-03-13T06:47:06.412Z,5.90
2023-03-13T06:50:10.480Z,6.00
2023-03-13T06:53:17.100Z,6.20
2023-03-13T06:56:21.772Z,6.40
2023-03-13T06:59:24.954Z,6.60
2023-03-13T07:02:29.441Z,6.80
2023-03-13T07:05:32.684Z,7.00
2023-03-13T07:08:36.818Z,7.20
2023-03-13T07:11:39.969Z,7.40
2023-03-13T07:14:43.169Z,7.70
2023-03-13T07:17:47.755Z,7.80
2023-03-13T07:20:54.529Z,8.00
2023-03-13T07:23:57.656Z,8.10
2023-03-13T07:27:07.272Z,8.10
2023-03-13T07:30:12.194Z,8.10
2023-03-13T07:33:16.752Z,8.00
2023-03-13T07:36:20.216Z,8.00
2023-03-13T07:39:23.578Z,8.00
2023-03-13T07:42:26.810Z,8.00
2023-03-13T07:45:29.988Z,8.10
2023-03-13T07:48:36.815Z,8.30
2023-03-13T07:51:44.052Z,8.60
2023-03-13T07:54:47.511Z,9.10
2023-03-13T07:57:50.698Z,9.60
2023-03-13T08:00:53.826Z,10.30
2023-03-13T08:03:58.906Z,10.70
2023-03-13T08:07:02.052Z,10.70
2023-03-13T08:10:06.032Z,10.70
2023-03-13T08:13:09.265Z,10.60
2023-03-13T08:16:13.886Z,10.70
2023-03-13T08:19:18.485Z,10.70
2023-03-13T08:22:21.676Z,10.40
2023-03-13T08:25:25.127Z,10.40
2023-03-13T08:28:28.308Z,10.10
2023-03-13T08:31:33.356Z,10.00
2023-03-13T08:34:39.486Z,9.80
2023-03-13T08:37:42.661Z,9.70
2023-03-13T08:40:45.894Z,9.50
2023-03-13T08:43:49.423Z,9.50
2023-03-13T08:46:52.593Z,9.40
2023-03-13T08:49:58.198Z,9.40
2023-03-13T08:53:01.349Z,9.50
2023-03-13T08:56:05.595Z,9.60
2023-03-13T08:59:08.785Z,9.80
2023-03-13T09:02:12.105Z,10.00
2023-03-13T09:05:16.910Z,10.20
2023-03-13T09:08:20.127Z,10.50
2023-03-13T09:11:23.729Z,10.90
2023-03-13T09:14:26.881Z,11.40
2023-03-13T09:17:30.034Z,12.30
2023-03-13T09:20:34.604Z,14.50
2023-03-13T09:23:37.788Z,19.20
2023-03-13T09:26:46.492Z,21.90
2023-03-13T09:29:55.076Z,23.60
2023-03-13T09:32:58.346Z,25.30
2023-03-13T09:36:02.956Z,28.20
2023-03-13T09:39:06.193Z,30.30
2023-03-13T09:42:15.678Z,31.70
2023-03-13T09:45:25.735Z,33.00
2023-03-13T09:48:32.655Z,33.40
2023-03-13T09:51:41.279Z,34.40
2023-03-13T09:54:49.341Z,34.90
2023-03-13T09:57:55.936Z,36.30
2023-03-13T10:01:02.221Z,37.80
2023-03-13T10:04:15.256Z,38.60
2023-03-13T10:07:20.987Z,38.80
2023-03-13T10:10:34.997Z,39.90
2023-03-13T10:13:44.057Z,41.10
2023-03-13T10:16:51.280Z,41.80
2023-03-13T10:19:59.636Z,41.30
2023-03-13T10:23:09.191Z,40.50
2023-03-13T10:26:17.872Z,39.90
2023-03-13T10:29:23.807Z,39.90
2023-03-13T10:32:28.829Z,39.60
2023-03-13T10:35:37.277Z,39.30
2023-03-13T10:38:53.413Z,38.70
2023-03-13T10:42:10.416Z,38.80
2023-03-13T10:45:17.746Z,37.50
2023-03-13T10:48:22.905Z,36.30
2023-03-13T10:51:31.849Z,35.90
2023-03-13T10:54:40.520Z,36.10
2023-03-13T10:57:53.626Z,36.30
2023-03-13T11:01:17.176Z,35.60
2023-03-13T11:04:29.544Z,34.70
2023-03-13T11:07:36.180Z,34.10
2023-03-13T11:10:54.874Z,33.70
2023-03-13T11:14:10.010Z,32.20
2023-03-13T11:17:30.731Z,30.60
2023-03-13T11:20:36.755Z,28.10
2023-03-13T11:23:44.334Z,26.20
2023-03-13T11:27:04.629Z,24.90
2023-03-13T11:30:22.990Z,23.50
2023-03-13T11:33:33.329Z,23.00
2023-03-13T11:36:40.018Z,23.50
2023-03-13T11:39:56.607Z,26.00
2023-03-13T11:43:25.497Z,29.30
2023-03-13T11:46:43.317Z,29.30
2023-03-13T11:50:03.331Z,27.70
2023-03-13T11:53:23.818Z,26.00
2023-03-13T11:56:32.721Z,24.40
2023-03-13T11:59:46.888Z,23.60
2023-03-13T12:02:54.991Z,24.20
2023-03-13T12:06:02.362Z,24.20
2023-03-13T12:09:12.530Z,24.60
2023-03-13T12:12:22.768Z,25.50
2023-03-13T12:15:31.204Z,26.20
2023-03-13T12:18:38.507Z,26.80
2023-03-13T12:21:48.387Z,27.50
2023-03-13T12:24:57.512Z,28.70
2023-03-13T12:28:10.596Z,28.90
2023-03-13T12:31:23.206Z,28.30
2023-03-13T12:34:32.053Z,28.40
2023-03-13T12:37:43.157Z,29.30
2023-03-13T12:40:52.131Z,30.50
2023-03-13T12:44:08.412Z,32.00
2023-03-13T12:47:20.298Z,33.20
2023-03-13T12:50:36.066Z,32.30
2023-03-13T12:54:06.754Z,28.60
2023-03-13T12:57:42.522Z,26.90
2023-03-13T13:00:48.106Z,25.50
2023-03-13T13:03:57.464Z,24.40
2023-03-13T13:07:03.073Z,24.40
2023-03-13T13:10:22.585Z,25.70
2023-03-13T13:13:32.077Z,28.30
2023-03-13T13:16:35.828Z,30.40
2023-03-13T13:19:48.570Z,32.80
2023-03-13T13:22:52.794Z,34.70
2023-03-13T13:26:18.493Z,35.70
2023-03-13T13:29:57.233Z,35.50
2023-03-13T13:33:33.770Z,35.60
2023-03-13T13:36:45.160Z,36.10
2023-03-13T13:39:50.372Z,36.50
2023-03-13T13:42:56.353Z,36.00
2023-03-13T13:46:06.117Z,33.30
2023-03-13T13:49:17.400Z,30.70
2023-03-13T13:52:43.601Z,28.80
2023-03-13T13:55:47.150Z,26.90
2023-03-13T13:58:50.951Z,25.20
2023-03-13T14:02:28.466Z,24.20
2023-03-13T14:05:33.859Z,23.10
2023-03-13T14:08:42.006Z,22.10
2023-03-13T14:11:45.639Z,21.20
2023-03-13T14:14:49.599Z,20.40
2023-03-13T14:17:54.887Z,19.90
2023-03-13T14:21:02.652Z,19.60
2023-03-13T14:24:16.410Z,19.30
2023-03-13T14:27:22.221Z,19.10
2023-03-13T14:30:27.379Z,19.00
2023-03-13T14:33:30.637Z,18.80
2023-03-13T14:36:47.583Z,18.70
2023-03-13T14:39:52.116Z,18.50
2023-03-13T14:42:58.347Z,18.40
2023-03-13T14:46:02.766Z,18.30
2023-03-13T14:49:19.176Z,18.30
2023-03-13T14:52:25.779Z,18.20
2023-03-13T14:55:40.482Z,18.20
2023-03-13T14:58:43.717Z,18.20
2023-03-13T15:01:47.693Z,18.10
2023-03-13T15:04:53.023Z,18.10
2023-03-13T15:07:56.387Z,18.00
2023-03-13T15:11:01.336Z,18.00
2023-03-13T15:14:05.020Z,18.00
2023-03-13T15:17:24.184Z,18.00
2023-03-13T15:20:28.995Z,18.00
2023-03-13T15:23:32.344Z,18.10
2023-03-13T15:26:36.891Z,18.10
2023-03-13T15:29:40.084Z,18.10
2023-03-13T15:32:46.609Z,18.10
2023-03-13T15:35:51.404Z,18.10
2023-03-13T15:38:54.940Z,17.90
2023-03-13T15:41:59.574Z,17.80
2023-03-13T15:45:02.825Z,17.70
2023-03-13T15:48:15.639Z,17.60
2023-03-13T15:51:19.111Z,17.50
2023-03-13T15:54:22.282Z,17.40
2023-03-13T15:57:27.595Z,17.40
2023-03-13T16:00:30.780Z,17.30
2023-03-13T16:03:33.927Z,17.30
2023-03-13T16:06:37.133Z,17.20
2023-03-13T16:09:40.523Z,17.10
2023-03-13T16:12:45.074Z,17.10
2023-03-13T16:15:49.080Z,17.00
2023-03-13T16:18:53.729Z,16.90
2023-03-13T16:21:57.201Z,16.80
2023-03-13T16:25:00.385Z,16.70
2023-03-13T16:28:04.924Z,16.60
2023-03-13T16:31:09.197Z,16.50
2023-03-13T16:34:12.442Z,16.50
2023-03-13T16:37:18.123Z,16.30
2023-03-13T16:40:24.221Z,16.20
2023-03-13T16:43:28.793Z,16.10
2023-03-13T16:46:36.669Z,16.00
2023-03-13T16:49:40.560Z,15.90
2023-03-13T16:52:43.755Z,15.80
2023-03-13T16:55:46.887Z,15.70
2023-03-13T16:58:51.834Z,15.60
2023-03-13T17:01:55.277Z,15.50
2023-03-13T17:04:58.692Z,15.40
2023-03-13T17:08:01.878Z,15.40
2023-03-13T17:11:05.509Z,15.20
2023-03-13T17:14:10.720Z,15.20
2023-03-13T17:17:17.706Z,15.10
2023-03-13T17:20:23.782Z,15.00
2023-03-13T17:23:27.106Z,14.90
2023-03-13T17:26:34.533Z,14.90
2023-03-13T17:29:39.058Z,14.80
2023-03-13T17:32:42.264Z,14.70
2023-03-13T17:35:46.172Z,14.60
2023-03-13T17:38:54.464Z,14.50
2023-03-13T17:42:00.639Z,14.50
2023-03-13T17:45:08.160Z,14.40
2023-03-13T17:48:15.314Z,14.40
2023-03-13T17:51:21.629Z,14.40
2023-03-13T17:54:25.865Z,14.30
2023-03-13T17:57:30.076Z,14.10
2023-03-13T18:00:35.649Z,14.00
2023-03-13T18:03:40.682Z,14.00
2023-03-13T18:06:46.425Z,13.90
2023-03-13T18:09:49.729Z,13.80
2023-03-13T18:12:53.809Z,13.70
2023-03-13T18:15:58.796Z,13.70
2023-03-13T18:19:02.925Z,13.60
2023-03-13T18:22:13.633Z,13.50
2023-03-13T18:25:17.584Z,13.30
2023-03-13T18:28:21.977Z,13.30
2023-03-13T18:31:32.934Z,13.20
2023-03-13T18:34:40.822Z,13.10
2023-03-13T18:37:49.733Z,12.90
2023-03-13T18:40:54.203Z,12.80
2023-03-13T18:43:59.942Z,12.80
2023-03-13T18:47:14.572Z,12.70
2023-03-13T18:50:25.288Z,12.60
2023-03-13T18:53:32.365Z,12.50
2023-03-13T18:56:36.925Z,12.40
2023-03-13T18:59:42.345Z,12.30
2023-03-13T19:02:50.582Z,12.20
2023-03-13T19:05:54.598Z,12.20
2023-03-13T19:09:01.320Z,12.10
2023-03-13T19:12:06.613Z,12.10
2023-03-13T19:15:12.680Z,11.90
2023-03-13T19:18:19.215Z,11.90
2023-03-13T19:21:26.842Z,11.90
2023-03-13T19:24:31.425Z,11.70
2023-03-13T19:27:35.865Z,11.70
2023-03-13T19:30:43.934Z,11.60
2023-03-13T19:33:50.013Z,11.50
2023-03-13T19:36:55.108Z,11.50
2023-03-13T19:40:00.506Z,11.50
2023-03-13T19:43:04.800Z,11.40
2023-03-13T19:46:23.641Z,11.40
2023-03-13T19:49:31.855Z,11.40
2023-03-13T19:52:38.725Z,11.30
2023-03-13T19:55:43.675Z,11.30
2023-03-13T19:58:49.922Z,11.30
2023-03-13T20:01:55.886Z,11.30
2023-03-13T20:05:01.924Z,11.20
2023-03-13T20:08:10.405Z,11.20
2023-03-13T20:11:17.193Z,11.10
2023-03-13T20:14:21.904Z,11.10
2023-03-13T20:17:26.472Z,11.10
2023-03-13T20:20:34.197Z,11.10
2023-03-13T20:23:38.747Z,11.00
2023-03-13T20:26:46.461Z,11.00
2023-03-13T20:29:51.829Z,11.00
2023-03-13T20:32:59.792Z,11.00
2023-03-13T20:36:09.429Z,11.00
2023-03-13T20:39:14.800Z,11.00
2023-03-13T20:42:21.012Z,11.00
2023-03-13T20:45:27.525Z,10.90
2023-03-13T20:48:32.326Z,10.90
2023-03-13T20:51:38.393Z,10.90
2023-03-13T20:54:42.696Z,10.80
2023-03-13T20:57:47.152Z,10.70
2023-03-13T21:00:52.193Z,10.70
2023-03-13T21:03:56.743Z,10.60
2023-03-13T21:07:04.710Z,10.50
2023-03-13T21:10:09.830Z,10.40
2023-03-13T21:13:13.777Z,10.40
2023-03-13T21:16:18.657Z,10.40
2023-03-13T21:19:22.938Z,10.30
2023-03-13T21:22:29.730Z,10.40
2023-03-13T21:25:33.024Z,10.40
2023-03-13T21:28:36.433Z,10.30
2023-03-13T21:31:39.901Z,10.30
2023-03-13T21:34:44.363Z,10.30
2023-03-13T21:37:49.458Z,10.30
2023-03-13T21:40:52.982Z,10.30
2023-03-13T21:43:56.460Z,10.30
2023-03-13T21:46:59.714Z,10.30
2023-03-13T21:50:03.930Z,10.20
2023-03-13T21:53:08.522Z,10.20
2023-03-13T21:56:15.315Z,10.20
2023-03-13T21:59:19.152Z,10.10
2023-03-13T22:02:22.365Z,10.10
2023-03-13T22:05:26.274Z,10.10
2023-03-13T22:08:30.911Z,10.10
2023-03-13T22:11:34.390Z,10.00
2023-03-13T22:14:37.630Z,10.00
2023-03-13T22:17:40.803Z,9.90
2023-03-13T22:20:44.531Z,9.90
2023-03-13T22:23:49.040Z,9.90
2023-03-13T22:26:52.204Z,9.90
2023-03-13T22:29:57.090Z,9.90
2023-03-13T22:33:00.386Z,9.90
2023-03-13T22:36:04.199Z,9.90
2023-03-13T22:39:08.724Z,9.80
2023-03-13T22:42:11.918Z,9.70
2023-03-13T22:45:16.047Z,9.70
2023-03-13T22:48:19.144Z,9.70
2023-03-13T22:51:22.335Z,9.70
2023-03-13T22:54:26.870Z,9.70
2023-03-13T22:57:30.213Z,9.70
2023-03-13T23:00:33.501Z,9.70
2023-03-13T23:03:36.904Z,9.70
2023-03-13T23:06:40.092Z,9.70
2023-03-13T23:09:44.955Z,9.60
2023-03-13T23:12:48.152Z,9.60
2023-03-13T23:15:58.494Z,9.60
2023-03-13T23:19:03.305Z,9.50
2023-03-13T23:22:06.477Z,9.50
2023-03-13T23:25:12.202Z,9.50
2023-03-13T23:28:15.457Z,9.50
2023-03-13T23:31:20.838Z,9.50
2023-03-13T23:34:24.159Z,9.40
2023-03-13T23:37:27.360Z,9.30
2023-03-13T23:40:32.683Z,9.20
2023-03-13T23:43:36.279Z,9.10
2023-03-13T23:46:39.503Z,9.10
2023-03-13T23:49:42.868Z,9.00
2023-03-13T23:52:46.054Z,9.00
2023-03-13T23:55:58.380Z,9.00
2023-03-13T23:59:01.562Z,8.90
